createdAt,value
2023-01-28T00:02:25.361Z,98699.20
2023-01-28T00:04:53.592Z,98695.80
2023-01-28T00:07:21.911Z,98695.13
2023-01-28T00:09:53.655Z,98696.78
2023-01-28T00:12:22.094Z,98693.25
2023-01-28T00:14:50.634Z,98692.84
2023-01-28T00:17:18.984Z,98694.85
2023-01-28T00:19:47.344Z,98697.57
2023-01-28T00:22:18.626Z,98693.30
2023-01-28T00:24:47.090Z,98693.33
2023-01-28T00:27:15.479Z,98688.34
2023-01-28T00:29:43.954Z,98688.27
2023-01-28T00:32:14.683Z,98681.39
2023-01-28T00:34:42.963Z,98688.54
2023-01-28T00:37:13.995Z,98684.84
2023-01-28T00:39:42.375Z,98683.38
2023-01-28T00:42:10.897Z,98685.31
2023-01-28T00:44:39.398Z,98683.23
2023-01-28T00:47:07.921Z,98684.23
2023-01-28T00:49:36.182Z,98692.94
2023-01-28T00:52:05.311Z,98699.55
2023-01-28T00:54:36.647Z,98697.52
2023-01-28T00:57:04.915Z,98702.94
2023-01-28T00:59:36.093Z,98710.52
2023-01-28T01:02:12.784Z,98713.16
2023-01-28T01:04:41.243Z,98710.76
2023-01-28T01:07:09.691Z,98707.67
2023-01-28T01:09:38.994Z,98707.77
2023-01-28T01:12:08.564Z,98711.35
2023-01-28T01:14:37.693Z,98710.48
2023-01-28T01:17:05.948Z,98712.48
2023-01-28T01:19:37.546Z,98714.61
2023-01-28T01:22:05.792Z,98714.21
2023-01-28T01:24:35.984Z,98718.23
2023-01-28T01:27:06.090Z,98716.02
2023-01-28T01:29:34.616Z,98712.80
2023-01-28T01:32:03.595Z,98713.70
2023-01-28T01:34:31.990Z,98717.94
2023-01-28T01:37:00.331Z,98719.94
2023-01-28T01:39:28.761Z,98714.20
2023-01-28T01:41:57.231Z,98714.95
2023-01-28T01:45:03.897Z,98717.16
2023-01-28T01:47:36.435Z,98717.68
2023-01-28T01:50:10.794Z,98717.75
2023-01-28T01:52:39.060Z,98722.48
2023-01-28T01:55:10.990Z,98718.84
2023-01-28T01:57:39.136Z,98720.57
2023-01-28T02:00:08.726Z,98724.06
2023-01-28T02:02:47.079Z,98723.23
2023-01-28T02:05:19.826Z,98725.58
2023-01-28T02:07:48.896Z,98730.27
2023-01-28T02:10:18.915Z,98727.64
2023-01-28T02:12:50.667Z,98730.87
2023-01-28T02:15:20.371Z,98730.75
2023-01-28T02:17:50.112Z,98727.05
2023-01-28T02:20:26.371Z,98724.55
2023-01-28T02:23:07.040Z,98723.27
2023-01-28T02:25:39.405Z,98719.54
2023-01-28T02:28:39.102Z,98716.98
2023-01-28T02:31:25.177Z,98720.13
2023-01-28T02:34:02.524Z,98724.83
2023-01-28T02:36:50.526Z,98728.13
2023-01-28T02:39:30.432Z,98726.98
2023-01-28T02:42:02.894Z,98730.15
2023-01-28T02:44:31.626Z,98732.59
2023-01-28T02:47:18.554Z,98733.23
2023-01-28T02:49:51.255Z,98733.41
2023-01-28T02:53:00.153Z,98735.58
2023-01-28T02:55:45.215Z,98737.08
2023-01-28T02:58:24.305Z,98735.00
2023-01-28T03:01:05.626Z,98737.14
2023-01-28T03:03:59.924Z,98735.41
2023-01-28T03:06:42.218Z,98735.13
2023-01-28T03:09:22.830Z,98732.09
2023-01-28T03:12:15.876Z,98732.26
2023-01-28T03:15:05.892Z,98731.09
2023-01-28T03:17:58.679Z,98731.83
2023-01-28T03:20:47.537Z,98727.08
2023-01-28T03:23:37.672Z,98728.75
2023-01-28T03:26:27.175Z,98722.08
2023-01-28T03:29:14.547Z,98721.09
2023-01-28T03:32:01.658Z,98712.54
2023-01-28T03:34:49.383Z,98710.45
2023-01-28T03:37:17.946Z,98709.64
2023-01-28T03:39:51.897Z,98712.45
2023-01-28T03:42:20.871Z,98711.21
2023-01-28T03:45:15.740Z,98709.86
2023-01-28T03:47:46.701Z,98707.72
2023-01-28T03:50:15.376Z,98713.17
2023-01-28T03:52:52.022Z,98718.74
2023-01-28T03:55:26.656Z,98718.10
2023-01-28T03:57:56.620Z,98717.01
2023-01-28T04:00:25.350Z,98716.62
2023-01-28T04:02:55.347Z,98720.34
2023-01-28T04:05:25.559Z,98715.28
2023-01-28T04:07:55.216Z,98722.58
2023-01-28T04:10:55.565Z,98725.09
2023-01-28T04:13:28.878Z,98727.48
2023-01-28T04:15:57.245Z,98728.73
2023-01-28T04:18:27.504Z,98724.98
2023-01-28T04:20:58.382Z,98721.07
2023-01-28T04:23:26.962Z,98718.68
2023-01-28T04:25:56.050Z,98722.36
2023-01-28T04:28:24.734Z,98724.38
2023-01-28T04:30:53.366Z,98723.69
2023-01-28T04:33:44.388Z,98722.52
2023-01-28T04:36:27.312Z,98723.02
2023-01-28T04:39:28.545Z,98729.55
2023-01-28T04:42:19.439Z,98731.78
2023-01-28T04:45:08.976Z,98731.00
2023-01-28T04:47:59.297Z,98729.41
2023-01-28T04:50:48.026Z,98725.42
2023-01-28T04:53:36.503Z,98723.21
2023-01-28T04:56:09.394Z,98723.69
2023-01-28T04:58:38.033Z,98722.58
2023-01-28T05:01:14.203Z,98725.89
2023-01-28T05:03:42.797Z,98734.16
2023-01-28T05:06:14.975Z,98739.38
2023-01-28T05:08:46.717Z,98741.68
2023-01-28T05:11:16.651Z,98737.69
2023-01-28T05:13:46.750Z,98731.69
2023-01-28T05:16:15.613Z,98743.31
2023-01-28T05:18:48.193Z,98743.04
2023-01-28T05:21:19.465Z,98744.94
2023-01-28T05:23:53.133Z,98745.99
2023-01-28T05:26:22.280Z,98745.02
2023-01-28T05:28:51.684Z,98753.22
2023-01-28T05:31:22.794Z,98757.92
2023-01-28T05:33:53.084Z,98756.06
2023-01-28T05:36:21.845Z,98758.27
2023-01-28T05:38:50.698Z,98756.29
2023-01-28T05:41:19.173Z,98752.73
2023-01-28T05:43:50.522Z,98749.65
2023-01-28T05:46:48.725Z,98754.20
2023-01-28T05:49:37.310Z,98760.48
2023-01-28T05:52:25.598Z,98757.61
2023-01-28T05:54:53.871Z,98758.25
2023-01-28T05:57:23.803Z,98755.47
2023-01-28T05:59:52.678Z,98753.95
2023-01-28T06:02:22.456Z,98757.68
2023-01-28T06:04:54.177Z,98758.68
2023-01-28T06:07:24.129Z,98758.30
2023-01-28T06:09:52.465Z,98761.02
2023-01-28T06:12:22.965Z,98760.63
2023-01-28T06:15:12.034Z,98759.95
2023-01-28T06:18:03.360Z,98763.20
2023-01-28T06:20:35.822Z,98765.15
2023-01-28T06:23:04.620Z,98762.04
2023-01-28T06:25:33.495Z,98757.95
2023-01-28T06:28:07.724Z,98758.48
2023-01-28T06:30:36.241Z,98757.15
2023-01-28T06:33:04.515Z,98760.61
2023-01-28T06:35:35.710Z,98761.97
2023-01-28T06:38:04.736Z,98757.56
2023-01-28T06:40:32.845Z,98756.91
2023-01-28T06:43:00.920Z,98755.86
2023-01-28T06:45:29.511Z,98755.48
2023-01-28T06:47:57.779Z,98757.27
2023-01-28T06:53:11.519Z,98751.27
2023-01-28T06:55:39.630Z,98756.74
2023-01-28T06:58:11.566Z,98760.11
2023-01-28T07:00:39.924Z,98764.30
2023-01-28T07:03:08.137Z,98764.35
2023-01-28T07:05:36.247Z,98759.48
2023-01-28T07:08:04.706Z,98759.55
2023-01-28T07:10:33.464Z,98761.53
2023-01-28T07:13:02.034Z,98761.46
2023-01-28T07:15:47.398Z,98757.31
2023-01-28T07:18:15.435Z,98757.42
2023-01-28T07:20:47.704Z,98761.91
2023-01-28T07:23:15.960Z,98765.23
2023-01-28T07:25:44.056Z,98767.59
2023-01-28T07:42:19.757Z,98755.95
2023-01-28T07:54:04.782Z,98757.88
2023-01-28T14:38:31.900Z,98685.52
2023-01-28T14:41:00.212Z,98689.90
2023-01-28T14:43:28.791Z,98692.26
2023-01-28T14:46:19.929Z,98690.84
2023-01-28T14:49:16.452Z,98688.33
2023-01-28T14:51:51.168Z,98691.36
2023-01-28T14:54:41.470Z,98700.89
2023-01-28T14:57:58.479Z,98705.91
2023-01-28T15:00:32.569Z,98707.17
2023-01-28T15:03:02.733Z,98707.23
2023-01-28T15:05:34.280Z,98706.67
2023-01-28T15:08:03.085Z,98709.92
2023-01-28T15:10:32.629Z,98710.20
2023-01-28T15:13:08.247Z,98716.70
2023-01-28T15:15:39.567Z,98716.87
2023-01-28T15:18:32.785Z,98724.04
2023-01-28T15:21:01.069Z,98726.50
2023-01-28T15:31:19.996Z,98727.84
2023-01-28T15:34:13.460Z,98729.28
2023-01-28T15:36:41.834Z,98736.11
2023-01-28T15:39:18.767Z,98737.05
2023-01-28T15:41:53.145Z,98739.34
2023-01-28T15:44:29.445Z,98740.83
2023-01-28T15:46:58.703Z,98737.98
2023-01-28T15:49:31.287Z,98741.09
2023-01-28T15:51:59.419Z,98743.20
2023-01-28T15:54:30.488Z,98742.92
2023-01-28T15:57:08.371Z,98743.09
2023-01-28T15:59:36.682Z,98737.88
2023-01-28T16:02:26.588Z,98741.40
2023-01-28T16:04:59.166Z,98745.41
2023-01-28T16:13:20.152Z,98741.98
2023-01-28T16:15:49.532Z,98738.63
2023-01-28T16:18:48.376Z,98742.98
2023-01-28T16:21:26.773Z,98745.91
2023-01-28T16:27:26.939Z,98743.98
2023-01-28T16:29:55.251Z,98746.48
2023-01-28T16:32:42.909Z,98749.45
2023-01-28T16:35:18.837Z,98746.95
2023-01-28T16:37:50.756Z,98747.00
2023-01-28T16:40:22.601Z,98744.98
2023-01-28T16:42:50.758Z,98741.85
2023-01-28T16:45:20.745Z,98743.59
2023-01-28T16:47:49.375Z,98743.73
2023-01-28T16:50:22.194Z,98747.96
2023-01-28T16:52:51.263Z,98748.79
2023-01-28T16:55:20.560Z,98748.27
2023-01-28T16:57:50.184Z,98752.20
2023-01-28T17:00:25.743Z,98750.38
2023-01-28T17:02:55.007Z,98754.65
2023-01-28T17:05:23.630Z,98756.96
2023-01-28T17:07:56.672Z,98758.77
2023-01-28T17:10:25.254Z,98758.89
2023-01-28T17:12:54.671Z,98761.63
2023-01-28T17:15:22.969Z,98761.61
2023-01-28T17:17:53.194Z,98765.53
2023-01-28T17:20:21.642Z,98762.67
2023-01-28T17:22:50.298Z,98764.89
2023-01-28T17:25:18.813Z,98770.92
2023-01-28T17:27:51.614Z,98773.14
2023-01-28T17:30:20.901Z,98773.48
2023-01-28T17:32:49.493Z,98772.54
2023-01-28T17:35:18.135Z,98771.05
2023-01-28T17:37:48.204Z,98769.80
2023-01-28T17:40:16.464Z,98765.48
2023-01-28T17:42:44.796Z,98766.50
2023-01-28T17:45:17.496Z,98768.37
2023-01-28T17:47:46.402Z,98772.81
2023-01-28T17:50:14.829Z,98771.08
2023-01-28T17:52:43.675Z,98777.09
2023-01-28T17:55:12.254Z,98773.98
2023-01-28T17:57:40.516Z,98774.15
2023-01-28T18:00:12.815Z,98776.73
2023-01-28T18:02:40.879Z,98776.37
2023-01-28T18:05:09.656Z,98780.77
2023-01-28T18:07:46.296Z,98780.11
2023-01-28T18:10:15.001Z,98781.36
2023-01-28T18:12:43.292Z,98780.19
2023-01-28T18:17:58.380Z,98777.34
2023-01-28T18:20:29.461Z,98780.51
2023-01-28T18:22:57.659Z,98778.40
2023-01-28T18:25:26.264Z,98774.05
2023-01-28T18:27:54.943Z,98772.62
2023-01-28T18:30:23.121Z,98775.52
2023-01-28T18:32:51.599Z,98775.98
2023-01-28T18:35:19.911Z,98776.63
2023-01-28T18:37:48.247Z,98769.94
2023-01-28T18:40:19.747Z,98770.20
2023-01-28T18:42:47.919Z,98766.10
2023-01-28T18:45:17.142Z,98769.80
2023-01-28T18:47:47.347Z,98771.41
2023-01-28T18:50:16.087Z,98772.79
2023-01-28T18:52:47.333Z,98772.48
2023-01-28T18:58:02.600Z,98777.59
2023-01-28T19:00:32.276Z,98780.75
2023-01-28T19:03:02.247Z,98779.77
2023-01-28T19:05:37.823Z,98781.08
2023-01-28T19:08:06.986Z,98778.64
2023-01-28T19:10:35.625Z,98777.94
2023-01-28T19:15:51.141Z,98766.18
2023-01-28T19:18:22.921Z,98772.32
2023-01-28T19:20:51.560Z,98771.25
2023-01-28T19:23:19.949Z,98773.88
2023-01-28T19:25:48.015Z,98774.73
2023-01-28T19:28:34.665Z,98771.30
2023-01-28T19:31:02.915Z,98770.14
2023-01-28T19:33:31.043Z,98771.81
2023-01-28T19:35:59.662Z,98768.25
2023-01-28T19:38:28.439Z,98773.20
2023-01-28T19:40:56.968Z,98774.60
2023-01-28T19:46:14.306Z,98779.10
2023-01-28T19:48:42.927Z,98774.27
2023-01-28T19:51:14.896Z,98780.36
2023-01-28T19:53:43.438Z,98781.03
2023-01-28T19:56:13.756Z,98785.91
2023-01-28T19:58:43.502Z,98782.64
2023-01-28T20:01:12.681Z,98783.39
2023-01-28T20:03:41.072Z,98781.83
2023-01-28T20:06:14.342Z,98782.83
2023-01-28T20:08:42.753Z,98786.57
2023-01-28T20:11:15.447Z,98787.08
2023-01-28T20:14:01.278Z,98782.11
2023-01-28T20:16:33.245Z,98781.77
2023-01-28T20:19:05.895Z,98781.63
2023-01-28T20:21:35.637Z,98783.90
2023-01-28T20:24:04.730Z,98784.98
2023-01-28T20:26:35.588Z,98782.48
2023-01-28T20:29:22.674Z,98786.08
2023-01-28T20:32:05.315Z,98780.80
2023-01-28T20:34:42.494Z,98776.62
2023-01-28T20:37:10.599Z,98778.45
2023-01-28T20:39:39.435Z,98773.43
2023-01-28T20:42:10.250Z,98772.84
2023-01-28T20:44:38.306Z,98771.37
2023-01-28T20:47:06.667Z,98771.77
2023-01-28T20:49:35.526Z,98773.02
2023-01-28T20:52:04.603Z,98774.65
2023-01-28T20:54:34.423Z,98777.67
2023-01-28T20:57:02.633Z,98779.06
2023-01-28T20:59:32.506Z,98775.83
2023-01-28T21:02:01.092Z,98779.33
2023-01-28T21:04:29.716Z,98778.26
2023-01-28T21:07:01.219Z,98779.08
2023-01-28T21:09:29.812Z,98776.63
2023-01-28T21:11:59.247Z,98777.14
2023-01-28T21:14:27.817Z,98775.95
2023-01-28T21:16:56.351Z,98776.80
2023-01-28T21:19:24.797Z,98780.24
2023-01-28T21:21:53.028Z,98783.17
2023-01-28T21:32:08.111Z,98787.96
2023-01-28T21:34:36.914Z,98791.09
2023-01-28T21:37:05.047Z,98792.17
2023-01-28T21:39:33.379Z,98796.73
2023-01-28T21:42:01.895Z,98795.79
2023-01-28T21:44:30.371Z,98794.54
2023-01-28T21:46:58.518Z,98791.50
2023-01-28T21:49:27.647Z,98792.54
2023-01-28T21:51:55.999Z,98790.88
2023-01-28T21:54:24.406Z,98793.43
2023-01-28T21:56:53.682Z,98790.98
2023-01-28T21:59:29.051Z,98789.23
2023-01-28T22:01:58.270Z,98784.44
2023-01-28T22:04:32.025Z,98782.03
2023-01-28T22:07:00.603Z,98784.27
2023-01-28T22:09:29.174Z,98781.61
2023-01-28T22:11:57.703Z,98779.90
2023-01-28T22:14:29.620Z,98780.73
2023-01-28T22:16:58.064Z,98778.80
2023-01-28T22:19:26.883Z,98780.10
2023-01-28T22:21:55.162Z,98774.76
2023-01-28T22:24:26.790Z,98769.80
2023-01-28T22:26:55.302Z,98770.27
2023-01-28T22:29:24.312Z,98766.25
2023-01-28T22:31:53.227Z,98763.04
2023-01-28T22:34:22.067Z,98759.69
2023-01-28T22:36:53.426Z,98760.35
2023-01-28T22:39:22.003Z,98758.30
2023-01-28T22:41:52.922Z,98757.95
2023-01-28T22:44:24.094Z,98755.31
2023-01-28T22:49:41.313Z,98755.87
2023-01-28T22:52:09.679Z,98755.31
2023-01-28T22:54:38.114Z,98759.03
2023-01-28T22:57:06.457Z,98759.20
2023-01-28T22:59:36.006Z,98757.88
2023-01-28T23:02:07.127Z,98759.16
2023-01-28T23:04:53.208Z,98759.52
2023-01-28T23:07:21.777Z,98763.27
2023-01-28T23:09:50.191Z,98761.20
2023-01-28T23:12:18.945Z,98758.50
2023-01-28T23:15:05.996Z,98756.91
2023-01-28T23:18:13.460Z,98758.23
2023-01-28T23:21:00.770Z,98755.89
2023-01-28T23:23:47.904Z,98756.09
2023-01-28T23:26:16.473Z,98756.77
2023-01-28T23:28:44.685Z,98755.72
2023-01-28T23:31:13.867Z,98758.17
2023-01-28T23:33:42.302Z,98754.13
2023-01-28T23:36:10.433Z,98755.56
2023-01-28T23:38:38.877Z,98752.70
2023-01-28T23:41:07.390Z,98749.14
2023-01-28T23:43:35.628Z,98751.05
2023-01-28T23:46:04.007Z,98752.30
2023-01-28T23:48:32.502Z,98748.58
2023-01-28T23:51:00.659Z,98746.66
2023-01-28T23:53:29.066Z,98749.83
2023-01-28T23:56:14.562Z,98748.27
2023-01-28T23:58:44.139Z,98748.25
